Baarn, Netherlands
Current Conditions -  °F | °C
As of 6:25 AM on Thursday 23 Oct 2014 (Local Time) from EHAM Reporting Station
Broken Clouds Broken Clouds  
Wind Chill: 52°   Ceiling: 2300
Heat Index: 52°   Visibility: 6mi
Dew Point: 50°   Wind: 8mph
Humidity: 94%   Direction: 200°SSW
Pressure: 30.12"   Gusts: NA
Location:  52.21°N, 5.29°E
Report Text: EHAM 230425Z 20007KT 9999 BKN023 11/10 Q1020 NOSIG
Loading
Personal Weather Stations






























Interactive Weather Map
Tropical Storm Tracking
New forecast layout! Learn more

10-Day Weather Forecast

Advertisements
Track Severe Weather on mobile